AirNav   Air Wisconsin Up To $57,000 Bonus
 
 1021 users online  

ND78 Wilcox Farm Airport
Ayr, North Dakota, USA

GOING TO AYR?


FAA INFORMATION EFFECTIVE 03 NOVEMBER 2022

Location

FAA Identifier: ND78
Lat/Long: 47-02-23.9220N 097-32-13.3310W
47-02.398700N 097-32.222183W
47.0399783,-97.5370364
(estimated)
Elevation: 1210 ft. / 369 m (estimated)
Variation: 07E (1985)
From city: 2 miles W of AYR, ND
Time zone: UTC -6 (UTC -5 during Daylight Saving Time)
Zip code: 58007

Airport Operations

Airport use: Private use. Permission required prior to landing
Activation date: 02/1975
Control tower: no
ARTCC: MINNEAPOLIS CENTER
FSS: GRAND FORKS FLIGHT SERVICE STATION
Attendance: UNATNDD
Wind indicator: no
Segmented circle: no

Nearby radio navigation aids

VOR radial/distance  VOR name  Freq  Var
FARr292/33.0FARGO VOR/DME116.2009E

Airport Services

Airframe service: NONE
Powerplant service: NONE

Runway Information

Runway N/S

Dimensions: 2600 x 50 ft. / 792 x 15 m
Surface: turf
RUNWAY N  RUNWAY S
Traffic pattern: leftleft

Airport Ownership and Management from official FAA records

Ownership: Privately-owned
Owner: LARRY WILCOX
13973 26R ST, SE
AYR, ND 58007-9741
Phone 701-633-5598
Manager: LARRY WILCOX
13973 26R ST SE
AYR, ND 58007-9741
Phone 701-633-5598

Airport Operational Statistics

Aircraft based on the field: 1
Single engine airplanes: 1
    

Additional Remarks

FOR CD CTC MINNEAPOLIS ARTCC AT 651-463-5588.

Instrument Procedures

There are no published instrument procedures at ND78.

Some nearby airports with instrument procedures:

5N8 - Casselton Robert Miller Regional Airport (18 nm SE)
KBAC - Barnes County Municipal Airport (21 nm W)
3H4 - Hillsboro Municipal Airport (27 nm NE)
KFAR - Hector International Airport (30 nm E)
K74 - Robert Odegaard Field Airport (32 nm SE)
 
Loc | Ops | Rwys | IFR | FBO | Links
Com | Nav | Svcs | Stats | Notes

Bismarck Aero Center
AirBoss

 
Area around ND78 (Wilcox Farm Airport)
 
Road maps at: MapQuest Bing Google
 
Aerial photo
No photo
 
Sectional chart

 
Airport distance calculator
Flying to Wilcox Farm Airport? Find the distance to fly.

From to ND78

Sunrise and sunset
Times for 26-Nov-2022
 Local
(UTC-6)
 Zulu
(UTC)
Morning civil twilight07:1613:16
Sunrise07:5013:50
Sunset16:4522:45
Evening civil twilight17:1923:19

Current date and time
Zulu (UTC)  26-Nov-2022 17:26:45
Local (UTC-6)  26-Nov-2022 11:26:45
 
METAR
KBAC 
21nm W 
261715Z AUTO 33018KT 10SM CLR 03/01 A2977 RMK AO2
KFAR 
30nm E 
261653Z 32009KT 10SM CLR 04/M01 A2972 RMK AO2 SLP074 T00391006
KS32 
33nm NW 
261715Z AUTO 33014G20KT 10SM SCT095 03/03 A2977 RMK AO2 TSNO
KJKJ 
38nm E 
261715Z AUTO 33012KT 10SM CLR 04/00 A2973 RMK AO2 TSNO
TAF
KFAR 
30nm E 
261124Z 2612/2712 21008KT P6SM SCT250 FM261500 30008KT P6SM SCT250 FM261800 33012G20KT P6SM BKN240 FM270200 32009KT P6SM BKN220
NOTAMs
Click for the latest NOTAMs
NOTAMs are issued by the DoD/FAA and will open in a separate window not controlled by AirNav.

 

 
 

Would you like to see your business listed on this page?

 If your business provides an interesting product or service to pilots, flight crews, aircraft, or users of the Wilcox Farm Airport, you should consider listing it here.  To start the listing process, click on the button below
 
Add a business
 

Other Pages about Wilcox Farm Airport

Update a link
 
Copyright © AirNav, LLC. All rights reserved. Privacy Policy  Contact